createdAt,value
2022-08-05T00:00:54.752Z,11.73
2022-08-05T00:03:21.201Z,11.50
2022-08-05T00:06:04.886Z,10.85
2022-08-05T00:08:36.138Z,10.68
2022-08-05T00:11:02.840Z,11.02
2022-08-05T00:13:38.072Z,11.95
2022-08-05T00:16:06.255Z,11.07
2022-08-05T00:18:35.287Z,11.27
2022-08-05T00:21:01.737Z,11.23
2022-08-05T00:23:44.276Z,10.80
2022-08-05T00:26:13.504Z,11.82
2022-08-05T00:28:42.665Z,11.57
2022-08-05T00:31:12.146Z,11.27
2022-08-05T00:34:54.361Z,11.75
2022-08-05T00:37:11.268Z,11.50
2022-08-05T00:39:13.550Z,10.15
2022-08-05T00:41:55.655Z,10.75
2022-08-05T00:44:23.300Z,11.27
2022-08-05T00:47:04.237Z,11.48
2022-08-05T00:49:44.766Z,10.95
2022-08-05T00:52:18.993Z,11.73
2022-08-05T00:54:55.179Z,11.32
2022-08-05T00:57:23.030Z,11.40
2022-08-05T00:59:51.887Z,10.93
2022-08-05T01:02:18.168Z,11.20
2022-08-05T01:04:44.552Z,11.18
2022-08-05T01:07:17.954Z,11.40
2022-08-05T01:09:55.576Z,11.57
2022-08-05T01:12:22.291Z,11.07
2022-08-05T01:14:48.767Z,10.98
2022-08-05T01:17:15.315Z,10.82
2022-08-05T01:20:00.695Z,10.80
2022-08-05T01:22:28.464Z,11.50
2022-08-05T01:24:54.797Z,11.13
2022-08-05T01:27:22.128Z,11.63
2022-08-05T01:29:49.720Z,10.90
2022-08-05T01:32:18.620Z,11.45
2022-08-05T01:34:45.271Z,10.77
2022-08-05T01:37:18.105Z,11.93
2022-08-05T01:39:51.806Z,11.50
2022-08-05T01:42:20.610Z,11.82
2022-08-05T01:44:54.172Z,12.40
2022-08-05T01:47:21.278Z,11.10
2022-08-05T01:50:01.426Z,11.40
2022-08-05T01:52:28.941Z,11.40
2022-08-05T01:54:56.720Z,10.73
2022-08-05T01:58:29.710Z,11.73
2022-08-05T02:00:12.119Z,11.90
2022-08-05T02:02:38.778Z,11.20
2022-08-05T02:07:59.942Z,11.55
2022-08-05T02:10:28.689Z,11.32
2022-08-05T02:12:55.154Z,11.50
2022-08-05T02:15:21.504Z,12.32
2022-08-05T02:18:32.402Z,11.98
2022-08-05T02:20:39.130Z,11.73
2022-08-05T02:23:05.633Z,11.13
2022-08-05T02:25:49.202Z,12.18
2022-08-05T02:28:16.902Z,11.43
2022-08-05T02:30:56.711Z,11.60
2022-08-05T02:33:24.173Z,11.57
2022-08-05T02:35:57.543Z,12.23
2022-08-05T02:38:27.094Z,11.10
2022-08-05T02:41:14.631Z,11.18
2022-08-05T02:44:02.405Z,11.60
2022-08-05T02:46:30.690Z,11.13
2022-08-05T02:48:57.076Z,11.20
2022-08-05T02:51:28.237Z,11.73
2022-08-05T02:54:09.954Z,11.27
2022-08-05T02:56:56.282Z,11.45
2022-08-05T02:59:26.925Z,12.25
2022-08-05T03:01:54.120Z,12.57
2022-08-05T03:04:20.725Z,12.05
2022-08-05T03:06:55.040Z,12.73
2022-08-05T03:09:27.237Z,11.82
2022-08-05T03:12:03.036Z,11.30
2022-08-05T03:14:29.368Z,11.15
2022-08-05T03:16:57.086Z,10.43
2022-08-05T03:19:33.105Z,10.48
2022-08-05T03:22:01.154Z,10.73
2022-08-05T03:24:30.070Z,12.73
2022-08-05T03:26:56.997Z,12.23
2022-08-05T03:29:23.719Z,10.98
2022-08-05T03:31:56.734Z,12.35
2022-08-05T03:34:26.822Z,12.18
2022-08-05T03:36:53.656Z,11.45
2022-08-05T03:39:27.074Z,11.10
2022-08-05T03:41:56.308Z,11.82
2022-08-05T03:44:22.974Z,11.35
2022-08-05T03:46:49.379Z,11.38
2022-08-05T03:49:15.738Z,11.27
2022-08-05T03:52:48.289Z,11.52
2022-08-05T03:55:34.325Z,11.68
2022-08-05T03:57:16.865Z,11.60
2022-08-05T03:59:46.504Z,11.38
2022-08-05T04:04:44.889Z,11.90
2022-08-05T04:07:11.277Z,10.52
2022-08-05T04:09:39.774Z,11.95
2022-08-05T04:12:24.613Z,11.35
2022-08-05T04:14:52.599Z,11.52
2022-08-05T04:17:18.963Z,11.60
2022-08-05T04:19:45.626Z,11.48
2022-08-05T04:22:21.270Z,11.10
2022-08-05T04:24:52.667Z,11.82
2022-08-05T04:27:19.242Z,11.80
2022-08-05T04:29:45.597Z,11.45
2022-08-05T04:32:14.804Z,8.30
2022-08-05T04:34:46.467Z,11.20
2022-08-05T04:37:12.966Z,11.23
2022-08-05T04:39:40.029Z,11.52
2022-08-05T04:42:06.613Z,12.18
2022-08-05T04:44:33.082Z,11.43
2022-08-05T04:46:59.571Z,11.95
2022-08-05T04:49:38.689Z,12.32
2022-08-05T04:52:12.234Z,11.77
2022-08-05T04:54:38.605Z,11.15
2022-08-05T04:57:04.958Z,12.00
2022-08-05T04:59:38.767Z,11.88
2022-08-05T05:02:37.739Z,11.27
2022-08-05T05:04:52.159Z,11.88
2022-08-05T05:07:18.520Z,11.48
2022-08-05T05:09:56.632Z,11.85
2022-08-05T05:12:23.443Z,11.57
2022-08-05T05:14:53.967Z,11.48
2022-08-05T05:17:24.186Z,10.48
2022-08-05T05:19:51.287Z,11.48
2022-08-05T05:22:23.943Z,10.60
2022-08-05T05:24:57.713Z,10.45
2022-08-05T05:27:41.263Z,10.80
2022-08-05T05:30:15.610Z,11.23
2022-08-05T05:32:56.296Z,10.93
2022-08-05T05:35:22.798Z,11.32
2022-08-05T05:37:59.857Z,11.57
2022-08-05T05:40:28.112Z,10.82
2022-08-05T05:42:54.993Z,11.60
2022-08-05T05:45:22.864Z,11.18
2022-08-05T05:48:06.210Z,10.77
2022-08-05T05:50:33.653Z,10.85
2022-08-05T05:53:00.541Z,11.60
2022-08-05T05:55:51.744Z,10.93
2022-08-05T05:58:13.375Z,11.18
2022-08-05T06:00:40.853Z,10.90
2022-08-05T06:03:39.886Z,11.85
2022-08-05T06:05:58.750Z,11.50
2022-08-05T06:08:31.556Z,12.20
2022-08-05T06:10:59.260Z,12.98
2022-08-05T06:13:26.682Z,12.50
2022-08-05T06:16:28.432Z,12.50
2022-08-05T06:18:39.563Z,13.65
2022-08-05T06:21:16.498Z,12.38
2022-08-05T06:23:44.073Z,13.30
2022-08-05T06:26:20.706Z,13.30
2022-08-05T06:28:48.307Z,13.38
2022-08-05T06:31:18.279Z,14.10
2022-08-05T06:34:06.912Z,14.02
2022-08-05T06:36:55.339Z,13.57
2022-08-05T06:39:21.847Z,13.88
2022-08-05T06:41:50.870Z,13.38
2022-08-05T06:44:18.608Z,14.30
2022-08-05T06:46:50.755Z,14.25
2022-08-05T06:49:17.478Z,14.52
2022-08-05T06:51:45.188Z,14.10
2022-08-05T06:54:18.075Z,14.23
2022-08-05T06:56:54.494Z,13.18
2022-08-05T06:59:21.743Z,14.77
2022-08-05T07:01:52.786Z,13.95
2022-08-05T07:04:19.568Z,14.43
2022-08-05T07:06:46.181Z,14.32
2022-08-05T07:09:16.822Z,13.95
2022-08-05T07:11:51.407Z,13.23
2022-08-05T07:14:29.084Z,14.27
2022-08-05T07:18:08.749Z,14.60
2022-08-05T07:20:31.277Z,15.07
2022-08-05T07:22:30.377Z,14.82
2022-08-05T07:24:56.935Z,16.75
2022-08-05T07:27:23.461Z,20.70
2022-08-05T07:30:23.945Z,22.77
2022-08-05T07:32:40.557Z,19.15
2022-08-05T07:36:02.114Z,20.67
2022-08-05T07:37:54.051Z,20.23
2022-08-05T07:40:32.504Z,22.95
2022-08-05T07:42:59.845Z,21.48
2022-08-05T07:45:56.287Z,22.60
2022-08-05T07:48:36.600Z,27.13
2022-08-05T07:51:04.253Z,26.40
2022-08-05T07:53:50.557Z,22.88
2022-08-05T07:56:59.832Z,22.88
2022-08-05T07:59:04.672Z,26.40
2022-08-05T08:04:03.156Z,22.83
2022-08-05T08:06:30.599Z,28.27
2022-08-05T08:08:56.992Z,28.48
2022-08-05T08:11:27.472Z,25.60
2022-08-05T08:14:03.655Z,24.70
2022-08-05T08:16:35.676Z,27.40
2022-08-05T08:20:10.394Z,25.40
2022-08-05T08:22:03.029Z,25.60
2022-08-05T08:24:46.036Z,26.48
2022-08-05T08:27:17.210Z,29.23
2022-08-05T08:30:04.102Z,27.77
2022-08-05T08:32:30.073Z,25.35
2022-08-05T08:34:58.340Z,24.08
2022-08-05T08:37:27.911Z,24.92
2022-08-05T08:39:54.657Z,23.00
2022-08-05T08:42:32.584Z,25.58
2022-08-05T08:45:23.974Z,23.67
2022-08-05T08:48:06.848Z,29.02
2022-08-05T08:51:22.405Z,30.52
2022-08-05T08:53:26.178Z,25.20
2022-08-05T08:56:04.788Z,23.23
2022-08-05T08:58:37.165Z,22.38
2022-08-05T09:01:10.995Z,26.02
2022-08-05T09:03:45.399Z,26.98
2022-08-05T09:06:16.951Z,27.75
2022-08-05T09:08:46.548Z,32.75
2022-08-05T09:11:13.906Z,31.38
2022-08-05T09:14:01.039Z,30.42
2022-08-05T09:16:26.835Z,30.80
2022-08-05T09:18:53.334Z,37.78
2022-08-05T09:22:22.776Z,36.88
2022-08-05T09:24:08.272Z,33.17
2022-08-05T09:26:36.724Z,32.92
2022-08-05T09:29:03.253Z,34.33
2022-08-05T09:32:41.032Z,33.45
2022-08-05T09:34:16.057Z,35.47
2022-08-05T09:36:45.781Z,36.38
2022-08-05T09:39:22.964Z,40.50
2022-08-05T09:41:53.888Z,30.15
2022-08-05T09:44:22.793Z,37.72
2022-08-05T09:46:51.858Z,42.08
2022-08-05T09:49:20.197Z,33.83
2022-08-05T09:51:49.002Z,34.97
2022-08-05T09:54:16.488Z,44.58
2022-08-05T09:56:55.390Z,38.03
2022-08-05T09:59:24.076Z,41.55
2022-08-05T10:01:57.715Z,44.85
2022-08-05T10:04:29.191Z,39.05
2022-08-05T10:06:59.064Z,42.50
2022-08-05T10:09:28.438Z,51.33
2022-08-05T10:11:56.399Z,51.30
2022-08-05T10:14:24.977Z,48.60
2022-08-05T10:16:54.473Z,39.58
2022-08-05T10:19:23.862Z,42.28
2022-08-05T10:21:58.455Z,42.60
2022-08-05T10:24:25.019Z,39.03
2022-08-05T10:26:53.938Z,45.88
2022-08-05T10:29:23.842Z,40.15
2022-08-05T10:32:53.684Z,39.53
2022-08-05T10:34:53.759Z,42.38
2022-08-05T10:37:20.130Z,54.53
2022-08-05T10:40:03.585Z,43.58
2022-08-05T10:42:34.614Z,49.83
2022-08-05T10:45:01.283Z,50.88
2022-08-05T10:47:31.403Z,44.35
2022-08-05T10:50:31.776Z,52.80
2022-08-05T10:52:49.511Z,51.22
2022-08-05T10:55:18.519Z,60.42
2022-08-05T10:57:45.007Z,46.47
2022-08-05T11:00:18.483Z,48.90
2022-08-05T11:02:50.628Z,45.45
2022-08-05T11:05:18.347Z,56.10
2022-08-05T11:08:01.750Z,55.20
2022-08-05T11:10:32.715Z,55.53
2022-08-05T11:12:59.081Z,42.17
2022-08-05T11:16:00.192Z,46.67
2022-08-05T11:18:15.780Z,48.53
2022-08-05T11:20:44.160Z,39.45
2022-08-05T11:23:10.688Z,42.08
2022-08-05T11:26:04.616Z,48.92
2022-08-05T11:28:23.563Z,45.92
2022-08-05T11:30:53.376Z,49.30
2022-08-05T11:33:21.331Z,46.63
2022-08-05T11:36:04.495Z,39.10
2022-08-05T11:38:37.294Z,43.10
2022-08-05T11:41:35.408Z,41.70
2022-08-05T11:44:04.491Z,44.50
2022-08-05T11:46:34.979Z,42.65
2022-08-05T11:49:01.386Z,39.53
2022-08-05T11:51:44.667Z,38.38
2022-08-05T11:54:14.298Z,37.08
2022-08-05T11:56:41.344Z,35.28
2022-08-05T11:59:13.742Z,33.80
2022-08-05T12:01:40.369Z,32.90
2022-08-05T12:04:06.695Z,32.10
2022-08-05T12:06:33.566Z,34.03
2022-08-05T12:09:01.185Z,36.25
2022-08-05T12:11:39.742Z,35.05
2022-08-05T12:14:07.581Z,35.63
2022-08-05T12:16:34.230Z,32.80
2022-08-05T12:19:04.991Z,32.60
2022-08-05T12:21:39.192Z,38.83
2022-08-05T12:24:07.841Z,32.83
2022-08-05T12:26:34.250Z,35.10
2022-08-05T12:29:01.469Z,37.13
2022-08-05T12:31:33.045Z,30.27
2022-08-05T12:34:10.028Z,33.05
2022-08-05T12:36:50.666Z,33.38
2022-08-05T12:39:17.124Z,30.60
2022-08-05T12:41:44.058Z,28.85
2022-08-05T12:44:11.637Z,30.80
2022-08-05T12:46:41.025Z,32.95
2022-08-05T12:49:12.040Z,37.17
2022-08-05T12:52:13.081Z,31.00
2022-08-05T12:54:30.710Z,33.35
2022-08-05T12:57:01.727Z,28.77
2022-08-05T13:00:08.863Z,30.20
2022-08-05T13:02:17.040Z,29.63
2022-08-05T13:04:52.536Z,30.98
2022-08-05T13:07:41.420Z,33.22
2022-08-05T13:10:08.359Z,31.48
2022-08-05T13:12:36.155Z,28.23
2022-08-05T13:15:24.005Z,26.60
2022-08-05T13:17:50.957Z,27.13
2022-08-05T13:20:21.694Z,118.20
2022-08-05T13:22:54.559Z,148.32
2022-08-05T13:25:21.923Z,166.48
2022-08-05T13:27:50.202Z,123.68
2022-08-05T13:30:33.803Z,89.45
2022-08-05T13:33:03.122Z,82.65
2022-08-05T13:35:42.967Z,241.63
2022-08-05T13:38:28.182Z,251.45
2022-08-05T13:40:57.949Z,222.98
2022-08-05T13:43:24.700Z,166.38
2022-08-05T13:46:13.434Z,121.00
2022-08-05T13:48:57.090Z,92.55
2022-08-05T13:51:25.767Z,87.47
2022-08-05T13:53:56.556Z,133.18
2022-08-05T13:56:25.532Z,168.25
2022-08-05T13:58:53.320Z,152.32
2022-08-05T14:01:22.003Z,121.28
2022-08-05T14:03:53.969Z,108.10
2022-08-05T14:06:26.349Z,107.32
2022-08-05T14:08:53.411Z,114.35
2022-08-05T14:11:22.084Z,222.32
2022-08-05T14:13:48.633Z,257.05
2022-08-05T14:16:21.412Z,189.98
2022-08-05T14:18:47.793Z,174.70
2022-08-05T14:22:10.321Z,145.52
2022-08-05T14:24:02.271Z,153.45
2022-08-05T14:26:35.616Z,145.57
2022-08-05T14:29:05.354Z,225.70
2022-08-05T14:32:03.085Z,208.30
2022-08-05T14:34:29.301Z,176.00
2022-08-05T14:37:02.067Z,150.98
2022-08-05T14:39:28.494Z,135.93
2022-08-05T14:42:19.572Z,146.30
2022-08-05T14:44:42.080Z,151.52
2022-08-05T14:47:08.859Z,242.15
2022-08-05T14:49:56.319Z,224.45
2022-08-05T14:52:42.876Z,202.43
2022-08-05T14:55:08.075Z,190.63
2022-08-05T14:57:54.850Z,177.52
2022-08-05T15:00:27.923Z,168.60
2022-08-05T15:02:55.054Z,156.30
2022-08-05T15:05:21.632Z,154.27
2022-08-05T15:08:05.737Z,141.30
2022-08-05T15:10:39.129Z,130.63
2022-08-05T15:13:05.890Z,134.77
2022-08-05T15:15:54.382Z,126.38
2022-08-05T15:18:23.255Z,139.25
2022-08-05T15:20:51.227Z,181.20
2022-08-05T15:23:17.566Z,156.43
2022-08-05T15:25:51.966Z,127.35
2022-08-05T15:28:24.430Z,112.25
2022-08-05T15:30:54.244Z,87.88
2022-08-05T15:34:05.247Z,72.97
2022-08-05T15:36:16.653Z,64.75
2022-08-05T15:38:44.537Z,124.63
2022-08-05T15:41:22.732Z,95.28
2022-08-05T15:43:50.995Z,79.97
2022-08-05T15:46:17.414Z,70.72
2022-08-05T15:48:54.732Z,54.13
2022-08-05T15:52:10.017Z,55.47
2022-08-05T15:54:15.251Z,44.90
2022-08-05T15:56:42.153Z,41.80
2022-08-05T15:59:09.990Z,52.28
2022-08-05T16:01:52.741Z,53.33
2022-08-05T16:04:20.713Z,46.13
2022-08-05T16:06:55.808Z,36.85
2022-08-05T16:09:23.095Z,40.10
2022-08-05T16:11:53.046Z,37.67
2022-08-05T16:14:20.081Z,34.22
2022-08-05T16:16:46.497Z,131.00
2022-08-05T16:19:25.580Z,203.85
2022-08-05T16:22:02.641Z,189.27
2022-08-05T16:24:41.519Z,166.77
2022-08-05T16:27:16.503Z,140.57
2022-08-05T16:29:51.054Z,124.07
2022-08-05T16:32:17.615Z,105.18
2022-08-05T16:34:54.807Z,90.22
2022-08-05T16:38:13.656Z,71.20
2022-08-05T16:40:24.923Z,64.97
2022-08-05T16:42:55.349Z,60.42
2022-08-05T16:46:05.379Z,44.58
2022-08-05T16:48:07.983Z,70.05
2022-08-05T16:50:36.905Z,73.47
2022-08-05T16:53:12.133Z,107.68
2022-08-05T16:55:48.645Z,109.38
2022-08-05T16:58:14.975Z,95.45
2022-08-05T17:00:46.824Z,83.78
2022-08-05T17:03:19.641Z,71.05
2022-08-05T17:05:50.213Z,53.25
2022-08-05T17:08:36.057Z,43.28
2022-08-05T17:11:06.242Z,33.22
2022-08-05T17:13:37.369Z,32.22
2022-08-05T17:16:28.012Z,37.45
2022-08-05T17:18:52.075Z,93.90
2022-08-05T17:21:18.407Z,129.13
2022-08-05T17:24:04.916Z,100.72
2022-08-05T17:26:32.273Z,64.22
2022-08-05T17:28:59.611Z,56.35
2022-08-05T17:31:56.536Z,51.40
2022-08-05T17:34:18.275Z,41.10
2022-08-05T17:36:44.596Z,37.90
2022-08-05T17:39:23.860Z,36.15
2022-08-05T17:42:17.498Z,33.47
2022-08-05T17:44:43.134Z,26.13
2022-08-05T17:47:17.625Z,22.90
2022-08-05T17:50:00.333Z,20.17
2022-08-05T17:52:30.958Z,16.55
2022-08-05T17:54:57.589Z,98.88
2022-08-05T17:57:24.558Z,69.78
2022-08-05T18:00:04.828Z,72.35
2022-08-05T18:02:32.137Z,45.95
2022-08-05T18:04:58.572Z,34.53
2022-08-05T18:07:25.268Z,31.05
2022-08-05T18:10:06.524Z,29.65
2022-08-05T18:12:37.446Z,24.70
2022-08-05T18:15:03.949Z,19.30
2022-08-05T18:18:00.596Z,19.42
2022-08-05T18:20:17.453Z,20.13
2022-08-05T18:22:54.064Z,15.88
2022-08-05T18:25:21.283Z,12.20
2022-08-05T18:27:52.370Z,11.32
2022-08-05T18:30:19.363Z,20.70
2022-08-05T18:32:53.084Z,37.15
2022-08-05T18:35:49.759Z,26.25
2022-08-05T18:38:12.909Z,20.63
2022-08-05T18:43:31.577Z,12.18
2022-08-05T18:46:04.697Z,11.93
2022-08-05T18:48:33.331Z,11.40
2022-08-05T18:52:03.353Z,9.77
2022-08-05T18:53:50.116Z,9.50
2022-08-05T18:56:16.947Z,9.07
2022-08-05T18:58:48.310Z,19.77
2022-08-05T19:01:17.845Z,28.92
2022-08-05T19:03:55.179Z,25.98
2022-08-05T19:06:37.066Z,31.20
2022-08-05T19:09:04.058Z,18.80
2022-08-05T19:11:59.356Z,17.48
2022-08-05T19:14:44.512Z,16.83
2022-08-05T19:17:03.491Z,15.82
2022-08-05T19:19:32.880Z,15.57
2022-08-05T19:22:00.467Z,29.05
2022-08-05T19:24:34.503Z,37.28
2022-08-05T19:27:03.934Z,28.67
2022-08-05T19:29:36.327Z,23.00
2022-08-05T19:32:04.416Z,21.58
2022-08-05T19:34:31.063Z,16.40
2022-08-05T19:36:57.707Z,14.55
2022-08-05T19:39:24.098Z,13.10
2022-08-05T19:42:07.158Z,18.17
2022-08-05T19:44:44.543Z,55.20
2022-08-05T19:47:11.691Z,110.70
2022-08-05T19:49:41.966Z,124.90
2022-08-05T19:52:30.718Z,125.18
2022-08-05T19:54:54.773Z,123.03
2022-08-05T19:57:48.998Z,121.47
2022-08-05T20:00:07.597Z,111.25
2022-08-05T20:02:35.841Z,109.57
2022-08-05T20:05:04.790Z,106.80
2022-08-05T20:07:38.992Z,105.57
2022-08-05T20:10:14.458Z,106.45
2022-08-05T20:12:47.646Z,134.82
2022-08-05T20:15:15.018Z,327.45
2022-08-05T20:18:01.556Z,298.88
2022-08-05T20:20:29.824Z,307.23
2022-08-05T20:22:56.331Z,290.05
2022-08-05T20:25:24.787Z,294.02
2022-08-05T20:28:00.245Z,280.67
2022-08-05T20:30:28.129Z,269.60
2022-08-05T20:32:54.410Z,267.83
2022-08-05T20:35:21.110Z,263.40
2022-08-05T20:38:06.670Z,254.98
2022-08-05T20:40:34.767Z,247.13
2022-08-05T20:43:01.237Z,237.48
2022-08-05T20:45:47.778Z,234.25
2022-08-05T20:48:16.552Z,233.60
2022-08-05T20:50:45.541Z,233.00
2022-08-05T20:53:16.358Z,266.75
2022-08-05T20:56:09.125Z,303.77
2022-08-05T20:58:36.089Z,283.70
2022-08-05T21:01:03.441Z,273.85
2022-08-05T21:03:30.455Z,278.58
2022-08-05T21:06:01.510Z,285.75
2022-08-05T21:08:36.005Z,284.13
2022-08-05T21:11:09.177Z,268.52
2022-08-05T21:13:55.682Z,250.63
2022-08-05T21:16:23.125Z,254.40
2022-08-05T21:18:56.590Z,256.63
2022-08-05T21:24:06.373Z,252.35
2022-08-05T21:26:32.671Z,240.68
2022-08-05T21:29:03.524Z,249.40
2022-08-05T21:31:41.294Z,242.00
2022-08-05T21:34:08.192Z,243.77
2022-08-05T21:36:37.310Z,250.18
2022-08-05T21:39:03.764Z,233.45
2022-08-05T21:41:33.826Z,231.10
2022-08-05T21:44:03.790Z,235.13
2022-08-05T21:46:30.893Z,221.13
2022-08-05T21:48:57.325Z,220.18
2022-08-05T21:52:22.710Z,217.13
2022-08-05T21:54:12.891Z,214.48
2022-08-05T21:56:44.253Z,210.77
2022-08-05T21:59:22.506Z,213.32
2022-08-05T22:01:51.538Z,199.38
2022-08-05T22:04:25.516Z,203.57
2022-08-05T22:06:52.064Z,198.32
2022-08-05T22:09:21.071Z,195.73
2022-08-05T22:11:49.122Z,197.15
2022-08-05T22:14:33.491Z,182.13
2022-08-05T22:17:04.932Z,180.48
2022-08-05T22:20:00.302Z,184.50
2022-08-05T22:22:26.923Z,173.73
2022-08-05T22:24:55.905Z,180.00
2022-08-05T22:27:22.440Z,172.65
2022-08-05T22:29:49.311Z,168.88
2022-08-05T22:32:20.747Z,171.43
2022-08-05T22:34:49.342Z,167.45
2022-08-05T22:37:15.802Z,163.90
2022-08-05T22:39:42.347Z,154.43
2022-08-05T22:42:15.447Z,158.85
2022-08-05T22:44:56.986Z,154.60
2022-08-05T22:47:30.083Z,150.95
2022-08-05T22:50:20.521Z,148.25
2022-08-05T22:52:43.344Z,145.98
2022-08-05T22:55:19.092Z,145.35
2022-08-05T22:57:46.316Z,139.85
2022-08-05T23:00:12.713Z,140.52
2022-08-05T23:02:46.936Z,144.35
2022-08-05T23:05:13.984Z,134.20
2022-08-05T23:07:45.388Z,135.07
2022-08-05T23:10:15.476Z,131.98
2022-08-05T23:12:46.082Z,131.52
2022-08-05T23:15:12.573Z,130.90
2022-08-05T23:18:00.876Z,122.35
2022-08-05T23:20:25.716Z,121.47
2022-08-05T23:22:55.624Z,118.80
2022-08-05T23:25:52.145Z,119.05
2022-08-05T23:28:09.267Z,116.40
2022-08-05T23:30:39.831Z,117.10
2022-08-05T23:33:21.880Z,120.97
2022-08-05T23:35:48.998Z,112.47
2022-08-05T23:38:15.968Z,110.18
2022-08-05T23:40:50.216Z,107.22
2022-08-05T23:43:25.285Z,105.70
2022-08-05T23:46:03.182Z,105.13
2022-08-05T23:48:29.509Z,105.28
2022-08-05T23:50:55.892Z,102.15
2022-08-05T23:53:28.529Z,100.40
2022-08-05T23:56:11.238Z,96.57
2022-08-05T23:58:38.536Z,97.90
